sensor_id;sensor_type;location;lat;lon;timestamp;P1;durP1;ratioP1;P2;durP2;ratioP2
33844;SDS011;20145;43.118;25.694;2023-02-01T00:01:48;11.50;;;6.65;;
33844;SDS011;20145;43.118;25.694;2023-02-01T00:04:14;9.23;;;5.90;;
33844;SDS011;20145;43.118;25.694;2023-02-01T00:06:40;8.25;;;6.55;;
33844;SDS011;20145;43.118;25.694;2023-02-01T00:09:05;10.82;;;6.90;;
33844;SDS011;20145;43.118;25.694;2023-02-01T00:11:31;7.53;;;6.05;;
33844;SDS011;20145;43.118;25.694;2023-02-01T00:13:56;7.20;;;5.72;;
33844;SDS011;20145;43.118;25.694;2023-02-01T00:16:23;8.48;;;6.07;;
33844;SDS011;20145;43.118;25.694;2023-02-01T00:18:51;6.22;;;5.63;;
33844;SDS011;20145;43.118;25.694;2023-02-01T00:21:22;6.70;;;5.60;;
33844;SDS011;20145;43.118;25.694;2023-02-01T00:23:47;6.85;;;5.43;;
33844;SDS011;20145;43.118;25.694;2023-02-01T00:26:14;6.32;;;5.15;;
33844;SDS011;20145;43.118;25.694;2023-02-01T00:29:07;8.10;;;5.50;;
33844;SDS011;20145;43.118;25.694;2023-02-01T00:31:36;6.53;;;5.23;;
33844;SDS011;20145;43.118;25.694;2023-02-01T00:34:02;6.63;;;5.40;;
33844;SDS011;20145;43.118;25.694;2023-02-01T00:36:28;5.20;;;4.70;;
33844;SDS011;20145;43.118;25.694;2023-02-01T00:38:54;8.95;;;5.38;;
33844;SDS011;20145;43.118;25.694;2023-02-01T00:41:20;7.00;;;6.30;;
33844;SDS011;20145;43.118;25.694;2023-02-01T00:43:47;6.47;;;5.85;;
33844;SDS011;20145;43.118;25.694;2023-02-01T00:46:13;7.88;;;5.35;;
33844;SDS011;20145;43.118;25.694;2023-02-01T00:48:40;6.80;;;5.15;;
33844;SDS011;20145;43.118;25.694;2023-02-01T00:51:07;6.07;;;5.28;;
33844;SDS011;20145;43.118;25.694;2023-02-01T00:53:35;6.97;;;4.55;;
33844;SDS011;20145;43.118;25.694;2023-02-01T00:56:01;8.75;;;5.13;;
33844;SDS011;20145;43.118;25.694;2023-02-01T00:58:26;10.65;;;6.00;;
33844;SDS011;20145;43.118;25.694;2023-02-01T01:01:14;5.85;;;5.13;;
33844;SDS011;20145;43.118;25.694;2023-02-01T01:03:40;6.18;;;5.20;;
33844;SDS011;20145;43.118;25.694;2023-02-01T01:06:09;7.00;;;5.05;;
33844;SDS011;20145;43.118;25.694;2023-02-01T01:08:38;6.47;;;5.72;;
33844;SDS011;20145;43.118;25.694;2023-02-01T01:11:08;5.90;;;4.97;;
33844;SDS011;20145;43.118;25.694;2023-02-01T01:13:36;7.05;;;4.85;;
33844;SDS011;20145;43.118;25.694;2023-02-01T01:16:03;11.77;;;5.28;;
33844;SDS011;20145;43.118;25.694;2023-02-01T01:18:30;5.78;;;4.85;;
33844;SDS011;20145;43.118;25.694;2023-02-01T01:20:57;9.15;;;5.55;;
33844;SDS011;20145;43.118;25.694;2023-02-01T01:23:22;11.65;;;4.90;;
33844;SDS011;20145;43.118;25.694;2023-02-01T01:25:48;5.55;;;4.95;;
33844;SDS011;20145;43.118;25.694;2023-02-01T01:28:14;7.88;;;6.03;;
33844;SDS011;20145;43.118;25.694;2023-02-01T01:30:40;6.25;;;5.13;;
33844;SDS011;20145;43.118;25.694;2023-02-01T01:33:06;5.30;;;4.80;;
33844;SDS011;20145;43.118;25.694;2023-02-01T01:35:32;7.45;;;5.05;;
33844;SDS011;20145;43.118;25.694;2023-02-01T01:37:58;6.95;;;5.00;;
33844;SDS011;20145;43.118;25.694;2023-02-01T01:40:25;7.72;;;5.63;;
33844;SDS011;20145;43.118;25.694;2023-02-01T01:42:51;7.63;;;5.15;;
33844;SDS011;20145;43.118;25.694;2023-02-01T01:45:21;7.65;;;4.95;;
33844;SDS011;20145;43.118;25.694;2023-02-01T01:47:52;9.25;;;4.57;;
33844;SDS011;20145;43.118;25.694;2023-02-01T01:50:40;5.63;;;4.75;;
33844;SDS011;20145;43.118;25.694;2023-02-01T01:53:14;5.75;;;4.53;;
33844;SDS011;20145;43.118;25.694;2023-02-01T01:55:44;6.03;;;4.35;;
33844;SDS011;20145;43.118;25.694;2023-02-01T01:58:14;4.72;;;4.32;;
33844;SDS011;20145;43.118;25.694;2023-02-01T02:00:43;6.03;;;4.55;;
33844;SDS011;20145;43.118;25.694;2023-02-01T02:05:49;8.15;;;5.00;;
33844;SDS011;20145;43.118;25.694;2023-02-01T02:08:16;4.90;;;4.13;;
33844;SDS011;20145;43.118;25.694;2023-02-01T02:10:45;4.97;;;4.45;;
33844;SDS011;20145;43.118;25.694;2023-02-01T02:13:25;5.32;;;4.32;;
33844;SDS011;20145;43.118;25.694;2023-02-01T02:16:02;5.22;;;4.15;;
33844;SDS011;20145;43.118;25.694;2023-02-01T02:21:10;7.88;;;4.70;;
33844;SDS011;20145;43.118;25.694;2023-02-01T02:38:05;5.68;;;4.00;;
33844;SDS011;20145;43.118;25.694;2023-02-01T02:40:41;4.78;;;3.72;;
33844;SDS011;20145;43.118;25.694;2023-02-01T02:49:23;7.10;;;4.05;;
33844;SDS011;20145;43.118;25.694;2023-02-01T02:52:06;6.85;;;4.47;;
33844;SDS011;20145;43.118;25.694;2023-02-01T02:57:24;6.30;;;4.47;;
33844;SDS011;20145;43.118;25.694;2023-02-01T03:00:15;5.55;;;3.70;;
33844;SDS011;20145;43.118;25.694;2023-02-01T03:03:02;6.28;;;4.18;;
33844;SDS011;20145;43.118;25.694;2023-02-01T03:05:47;9.85;;;4.72;;
33844;SDS011;20145;43.118;25.694;2023-02-01T03:08:26;5.97;;;4.20;;
33844;SDS011;20145;43.118;25.694;2023-02-01T03:11:00;6.57;;;4.10;;
33844;SDS011;20145;43.118;25.694;2023-02-01T03:14:03;4.93;;;4.35;;
33844;SDS011;20145;43.118;25.694;2023-02-01T03:16:26;6.70;;;4.13;;
33844;SDS011;20145;43.118;25.694;2023-02-01T03:21:33;8.00;;;4.40;;
33844;SDS011;20145;43.118;25.694;2023-02-01T03:24:23;6.25;;;3.80;;
33844;SDS011;20145;43.118;25.694;2023-02-01T03:32:30;9.60;;;6.18;;
33844;SDS011;20145;43.118;25.694;2023-02-01T03:35:17;5.75;;;4.80;;
33844;SDS011;20145;43.118;25.694;2023-02-01T03:37:46;4.22;;;3.83;;
33844;SDS011;20145;43.118;25.694;2023-02-01T03:40:13;6.30;;;3.88;;
33844;SDS011;20145;43.118;25.694;2023-02-01T03:42:42;5.43;;;4.43;;
33844;SDS011;20145;43.118;25.694;2023-02-01T03:45:11;5.85;;;4.43;;
33844;SDS011;20145;43.118;25.694;2023-02-01T03:47:43;5.88;;;4.65;;
33844;SDS011;20145;43.118;25.694;2023-02-01T03:50:14;9.15;;;5.18;;
33844;SDS011;20145;43.118;25.694;2023-02-01T03:52:47;4.63;;;4.10;;
33844;SDS011;20145;43.118;25.694;2023-02-01T03:55:18;6.32;;;4.15;;
33844;SDS011;20145;43.118;25.694;2023-02-01T03:57:50;5.00;;;4.13;;
33844;SDS011;20145;43.118;25.694;2023-02-01T04:00:23;5.40;;;3.90;;
33844;SDS011;20145;43.118;25.694;2023-02-01T04:02:50;6.88;;;3.60;;
33844;SDS011;20145;43.118;25.694;2023-02-01T04:05:16;6.20;;;4.43;;
33844;SDS011;20145;43.118;25.694;2023-02-01T04:07:42;6.65;;;4.47;;
33844;SDS011;20145;43.118;25.694;2023-02-01T04:10:08;5.93;;;4.03;;
33844;SDS011;20145;43.118;25.694;2023-02-01T04:12:34;6.22;;;4.40;;
33844;SDS011;20145;43.118;25.694;2023-02-01T04:15:00;6.30;;;4.40;;
33844;SDS011;20145;43.118;25.694;2023-02-01T04:17:25;6.78;;;4.47;;
33844;SDS011;20145;43.118;25.694;2023-02-01T04:19:51;5.88;;;4.85;;
33844;SDS011;20145;43.118;25.694;2023-02-01T04:22:16;6.57;;;4.43;;
33844;SDS011;20145;43.118;25.694;2023-02-01T04:24:42;5.55;;;3.92;;
33844;SDS011;20145;43.118;25.694;2023-02-01T04:27:07;5.60;;;4.88;;
33844;SDS011;20145;43.118;25.694;2023-02-01T04:29:33;5.72;;;4.53;;
33844;SDS011;20145;43.118;25.694;2023-02-01T04:31:59;8.18;;;5.00;;
33844;SDS011;20145;43.118;25.694;2023-02-01T04:34:24;6.68;;;4.82;;
33844;SDS011;20145;43.118;25.694;2023-02-01T04:36:50;7.95;;;5.20;;
33844;SDS011;20145;43.118;25.694;2023-02-01T04:39:16;8.32;;;5.18;;
33844;SDS011;20145;43.118;25.694;2023-02-01T04:41:42;8.38;;;5.78;;
33844;SDS011;20145;43.118;25.694;2023-02-01T04:44:15;13.10;;;6.15;;
33844;SDS011;20145;43.118;25.694;2023-02-01T04:46:42;6.35;;;5.75;;
33844;SDS011;20145;43.118;25.694;2023-02-01T04:49:08;8.27;;;6.32;;
33844;SDS011;20145;43.118;25.694;2023-02-01T04:51:35;6.35;;;5.75;;
33844;SDS011;20145;43.118;25.694;2023-02-01T04:54:01;6.45;;;5.45;;
33844;SDS011;20145;43.118;25.694;2023-02-01T04:56:27;10.55;;;6.90;;
33844;SDS011;20145;43.118;25.694;2023-02-01T04:58:52;12.23;;;8.57;;
33844;SDS011;20145;43.118;25.694;2023-02-01T05:01:18;12.77;;;8.30;;
33844;SDS011;20145;43.118;25.694;2023-02-01T05:03:44;13.88;;;10.55;;
33844;SDS011;20145;43.118;25.694;2023-02-01T05:06:10;11.00;;;8.40;;
33844;SDS011;20145;43.118;25.694;2023-02-01T05:08:35;12.60;;;7.97;;
33844;SDS011;20145;43.118;25.694;2023-02-01T05:11:01;9.88;;;7.55;;
33844;SDS011;20145;43.118;25.694;2023-02-01T05:13:28;6.78;;;6.05;;
33844;SDS011;20145;43.118;25.694;2023-02-01T05:16:13;7.85;;;5.68;;
33844;SDS011;20145;43.118;25.694;2023-02-01T05:18:38;8.00;;;5.10;;
33844;SDS011;20145;43.118;25.694;2023-02-01T05:21:04;8.30;;;5.82;;
33844;SDS011;20145;43.118;25.694;2023-02-01T05:23:30;8.63;;;5.80;;
33844;SDS011;20145;43.118;25.694;2023-02-01T05:25:59;8.88;;;6.45;;
33844;SDS011;20145;43.118;25.694;2023-02-01T05:28:25;8.35;;;6.25;;
33844;SDS011;20145;43.118;25.694;2023-02-01T05:30:52;8.60;;;5.95;;
33844;SDS011;20145;43.118;25.694;2023-02-01T05:33:17;8.75;;;6.88;;
33844;SDS011;20145;43.118;25.694;2023-02-01T05:35:43;7.03;;;5.45;;
33844;SDS011;20145;43.118;25.694;2023-02-01T05:38:08;7.68;;;6.15;;
33844;SDS011;20145;43.118;25.694;2023-02-01T05:40:34;6.70;;;5.80;;
33844;SDS011;20145;43.118;25.694;2023-02-01T05:42:59;12.15;;;8.73;;
33844;SDS011;20145;43.118;25.694;2023-02-01T05:45:25;9.07;;;6.53;;
33844;SDS011;20145;43.118;25.694;2023-02-01T05:47:51;10.55;;;7.03;;
33844;SDS011;20145;43.118;25.694;2023-02-01T05:50:16;9.05;;;7.28;;
33844;SDS011;20145;43.118;25.694;2023-02-01T05:52:42;15.55;;;8.30;;
33844;SDS011;20145;43.118;25.694;2023-02-01T05:55:07;6.15;;;5.60;;
33844;SDS011;20145;43.118;25.694;2023-02-01T05:57:33;7.38;;;5.43;;
33844;SDS011;20145;43.118;25.694;2023-02-01T05:59:59;9.25;;;5.43;;
33844;SDS011;20145;43.118;25.694;2023-02-01T06:02:24;7.82;;;6.05;;
33844;SDS011;20145;43.118;25.694;2023-02-01T06:04:50;9.25;;;5.78;;
33844;SDS011;20145;43.118;25.694;2023-02-01T06:07:16;10.23;;;5.70;;
33844;SDS011;20145;43.118;25.694;2023-02-01T06:09:42;11.77;;;6.95;;
33844;SDS011;20145;43.118;25.694;2023-02-01T06:12:07;12.70;;;6.90;;
33844;SDS011;20145;43.118;25.694;2023-02-01T06:14:33;10.15;;;7.35;;
33844;SDS011;20145;43.118;25.694;2023-02-01T06:16:59;17.38;;;8.23;;
33844;SDS011;20145;43.118;25.694;2023-02-01T06:19:25;14.63;;;9.23;;
33844;SDS011;20145;43.118;25.694;2023-02-01T06:21:50;19.90;;;11.50;;
33844;SDS011;20145;43.118;25.694;2023-02-01T06:24:16;17.15;;;8.65;;
33844;SDS011;20145;43.118;25.694;2023-02-01T06:26:42;10.43;;;7.68;;
33844;SDS011;20145;43.118;25.694;2023-02-01T06:29:09;10.68;;;8.50;;
33844;SDS011;20145;43.118;25.694;2023-02-01T06:31:36;8.65;;;6.85;;
33844;SDS011;20145;43.118;25.694;2023-02-01T06:34:01;5.85;;;5.25;;
33844;SDS011;20145;43.118;25.694;2023-02-01T06:36:28;6.45;;;5.15;;
33844;SDS011;20145;43.118;25.694;2023-02-01T06:38:55;8.15;;;5.93;;
33844;SDS011;20145;43.118;25.694;2023-02-01T06:41:21;8.32;;;5.30;;
33844;SDS011;20145;43.118;25.694;2023-02-01T06:43:48;7.60;;;5.35;;
33844;SDS011;20145;43.118;25.694;2023-02-01T06:46:14;5.65;;;5.13;;
33844;SDS011;20145;43.118;25.694;2023-02-01T06:48:40;5.70;;;5.13;;
33844;SDS011;20145;43.118;25.694;2023-02-01T06:51:06;7.28;;;4.20;;
33844;SDS011;20145;43.118;25.694;2023-02-01T06:53:50;7.03;;;4.60;;
33844;SDS011;20145;43.118;25.694;2023-02-01T06:56:16;9.43;;;4.72;;
33844;SDS011;20145;43.118;25.694;2023-02-01T06:58:41;5.40;;;4.90;;
33844;SDS011;20145;43.118;25.694;2023-02-01T07:01:08;6.03;;;4.97;;
33844;SDS011;20145;43.118;25.694;2023-02-01T07:03:35;5.72;;;5.13;;
33844;SDS011;20145;43.118;25.694;2023-02-01T07:06:01;5.53;;;4.55;;
33844;SDS011;20145;43.118;25.694;2023-02-01T07:08:27;5.20;;;4.60;;
33844;SDS011;20145;43.118;25.694;2023-02-01T07:10:54;5.25;;;4.30;;
33844;SDS011;20145;43.118;25.694;2023-02-01T07:13:19;5.53;;;4.72;;
33844;SDS011;20145;43.118;25.694;2023-02-01T07:15:45;6.10;;;5.07;;
33844;SDS011;20145;43.118;25.694;2023-02-01T07:18:14;10.32;;;5.85;;
33844;SDS011;20145;43.118;25.694;2023-02-01T07:20:40;21.17;;;11.70;;
33844;SDS011;20145;43.118;25.694;2023-02-01T07:23:07;10.80;;;9.18;;
33844;SDS011;20145;43.118;25.694;2023-02-01T07:25:36;6.10;;;5.50;;
33844;SDS011;20145;43.118;25.694;2023-02-01T07:28:02;9.85;;;6.13;;
33844;SDS011;20145;43.118;25.694;2023-02-01T07:30:27;7.68;;;4.78;;
33844;SDS011;20145;43.118;25.694;2023-02-01T07:32:53;11.02;;;6.15;;
33844;SDS011;20145;43.118;25.694;2023-02-01T07:35:19;9.10;;;6.40;;
33844;SDS011;20145;43.118;25.694;2023-02-01T07:37:44;8.45;;;6.18;;
33844;SDS011;20145;43.118;25.694;2023-02-01T07:40:10;7.80;;;6.43;;
33844;SDS011;20145;43.118;25.694;2023-02-01T07:42:36;9.25;;;6.65;;
33844;SDS011;20145;43.118;25.694;2023-02-01T07:45:02;6.00;;;4.68;;
33844;SDS011;20145;43.118;25.694;2023-02-01T07:47:28;7.55;;;5.30;;
33844;SDS011;20145;43.118;25.694;2023-02-01T07:49:54;10.38;;;6.10;;
33844;SDS011;20145;43.118;25.694;2023-02-01T07:52:19;7.95;;;5.40;;
33844;SDS011;20145;43.118;25.694;2023-02-01T07:54:45;10.10;;;4.90;;
33844;SDS011;20145;43.118;25.694;2023-02-01T07:57:11;5.70;;;4.38;;
33844;SDS011;20145;43.118;25.694;2023-02-01T07:59:37;7.68;;;3.83;;
33844;SDS011;20145;43.118;25.694;2023-02-01T08:02:25;7.18;;;4.55;;
33844;SDS011;20145;43.118;25.694;2023-02-01T08:04:51;5.65;;;4.30;;
33844;SDS011;20145;43.118;25.694;2023-02-01T08:07:16;8.07;;;4.53;;
33844;SDS011;20145;43.118;25.694;2023-02-01T08:09:42;5.13;;;3.70;;
33844;SDS011;20145;43.118;25.694;2023-02-01T08:12:07;10.23;;;5.05;;
33844;SDS011;20145;43.118;25.694;2023-02-01T08:14:33;8.32;;;4.82;;
33844;SDS011;20145;43.118;25.694;2023-02-01T08:16:58;9.70;;;5.13;;
33844;SDS011;20145;43.118;25.694;2023-02-01T08:19:24;4.88;;;4.00;;
33844;SDS011;20145;43.118;25.694;2023-02-01T08:21:49;10.52;;;6.28;;
33844;SDS011;20145;43.118;25.694;2023-02-01T08:24:15;8.23;;;5.50;;
33844;SDS011;20145;43.118;25.694;2023-02-01T08:26:40;7.63;;;4.32;;
33844;SDS011;20145;43.118;25.694;2023-02-01T08:29:07;5.38;;;4.10;;
33844;SDS011;20145;43.118;25.694;2023-02-01T08:31:36;8.82;;;5.00;;
33844;SDS011;20145;43.118;25.694;2023-02-01T08:34:05;4.45;;;3.22;;
33844;SDS011;20145;43.118;25.694;2023-02-01T08:36:33;7.82;;;4.70;;
33844;SDS011;20145;43.118;25.694;2023-02-01T08:38:58;7.60;;;4.30;;
33844;SDS011;20145;43.118;25.694;2023-02-01T08:41:26;6.72;;;4.70;;
33844;SDS011;20145;43.118;25.694;2023-02-01T08:43:54;6.90;;;5.05;;
33844;SDS011;20145;43.118;25.694;2023-02-01T08:46:20;5.78;;;4.72;;
33844;SDS011;20145;43.118;25.694;2023-02-01T08:48:47;8.43;;;4.85;;
33844;SDS011;20145;43.118;25.694;2023-02-01T08:51:13;7.93;;;4.72;;
33844;SDS011;20145;43.118;25.694;2023-02-01T08:53:40;5.07;;;4.03;;
33844;SDS011;20145;43.118;25.694;2023-02-01T08:56:06;5.63;;;4.18;;
33844;SDS011;20145;43.118;25.694;2023-02-01T08:58:33;8.10;;;4.63;;
33844;SDS011;20145;43.118;25.694;2023-02-01T09:01:03;11.50;;;6.50;;
33844;SDS011;20145;43.118;25.694;2023-02-01T09:03:29;9.50;;;5.47;;
33844;SDS011;20145;43.118;25.694;2023-02-01T09:06:05;11.93;;;7.35;;
33844;SDS011;20145;43.118;25.694;2023-02-01T09:08:33;11.32;;;7.75;;
33844;SDS011;20145;43.118;25.694;2023-02-01T09:11:00;7.03;;;5.10;;
33844;SDS011;20145;43.118;25.694;2023-02-01T09:13:27;4.38;;;3.72;;
33844;SDS011;20145;43.118;25.694;2023-02-01T09:15:53;6.50;;;4.00;;
33844;SDS011;20145;43.118;25.694;2023-02-01T09:18:19;7.57;;;5.68;;
33844;SDS011;20145;43.118;25.694;2023-02-01T09:20:44;4.45;;;3.75;;
33844;SDS011;20145;43.118;25.694;2023-02-01T09:23:10;7.07;;;4.90;;
33844;SDS011;20145;43.118;25.694;2023-02-01T09:25:38;16.60;;;9.25;;
33844;SDS011;20145;43.118;25.694;2023-02-01T09:28:04;7.07;;;5.80;;
33844;SDS011;20145;43.118;25.694;2023-02-01T09:30:34;8.80;;;5.57;;
33844;SDS011;20145;43.118;25.694;2023-02-01T09:33:01;10.63;;;5.43;;
33844;SDS011;20145;43.118;25.694;2023-02-01T09:35:27;8.63;;;5.03;;
33844;SDS011;20145;43.118;25.694;2023-02-01T09:37:53;15.77;;;8.38;;
33844;SDS011;20145;43.118;25.694;2023-02-01T09:40:19;5.95;;;3.70;;
33844;SDS011;20145;43.118;25.694;2023-02-01T09:45:36;9.07;;;4.85;;
33844;SDS011;20145;43.118;25.694;2023-02-01T09:48:11;13.47;;;6.00;;
33844;SDS011;20145;43.118;25.694;2023-02-01T09:50:46;11.20;;;6.30;;
33844;SDS011;20145;43.118;25.694;2023-02-01T09:53:18;9.02;;;5.85;;
33844;SDS011;20145;43.118;25.694;2023-02-01T09:55:59;6.95;;;4.75;;
33844;SDS011;20145;43.118;25.694;2023-02-01T10:01:02;5.57;;;3.97;;
33844;SDS011;20145;43.118;25.694;2023-02-01T10:03:31;5.28;;;3.95;;
33844;SDS011;20145;43.118;25.694;2023-02-01T10:08:52;5.32;;;3.38;;
33844;SDS011;20145;43.118;25.694;2023-02-01T10:14:18;8.88;;;5.03;;
33844;SDS011;20145;43.118;25.694;2023-02-01T10:19:39;10.02;;;5.60;;
33844;SDS011;20145;43.118;25.694;2023-02-01T10:22:10;6.15;;;4.40;;
33844;SDS011;20145;43.118;25.694;2023-02-01T10:27:23;5.80;;;3.35;;
33844;SDS011;20145;43.118;25.694;2023-02-01T10:30:06;6.47;;;3.95;;
33844;SDS011;20145;43.118;25.694;2023-02-01T10:32:43;8.55;;;4.60;;
33844;SDS011;20145;43.118;25.694;2023-02-01T10:35:11;13.25;;;5.00;;
33844;SDS011;20145;43.118;25.694;2023-02-01T10:37:41;9.25;;;4.78;;
33844;SDS011;20145;43.118;25.694;2023-02-01T10:42:46;7.13;;;3.97;;
33844;SDS011;20145;43.118;25.694;2023-02-01T10:45:18;5.45;;;3.13;;
33844;SDS011;20145;43.118;25.694;2023-02-01T10:47:46;5.72;;;3.60;;
33844;SDS011;20145;43.118;25.694;2023-02-01T10:53:05;9.05;;;5.60;;
33844;SDS011;20145;43.118;25.694;2023-02-01T10:58:04;7.53;;;4.55;;
33844;SDS011;20145;43.118;25.694;2023-02-01T11:03:36;15.50;;;7.70;;
33844;SDS011;20145;43.118;25.694;2023-02-01T11:06:03;12.15;;;7.57;;
33844;SDS011;20145;43.118;25.694;2023-02-01T11:08:42;24.00;;;14.88;;
33844;SDS011;20145;43.118;25.694;2023-02-01T11:13:39;17.17;;;7.72;;
33844;SDS011;20145;43.118;25.694;2023-02-01T11:16:06;14.93;;;9.27;;
33844;SDS011;20145;43.118;25.694;2023-02-01T11:21:04;13.73;;;8.48;;
33844;SDS011;20145;43.118;25.694;2023-02-01T11:23:31;14.45;;;7.85;;
33844;SDS011;20145;43.118;25.694;2023-02-01T11:26:02;21.17;;;12.23;;
33844;SDS011;20145;43.118;25.694;2023-02-01T11:28:37;30.45;;;16.92;;
33844;SDS011;20145;43.118;25.694;2023-02-01T11:31:07;8.63;;;5.22;;
33844;SDS011;20145;43.118;25.694;2023-02-01T11:33:35;7.07;;;3.75;;
33844;SDS011;20145;43.118;25.694;2023-02-01T11:36:06;19.42;;;10.98;;
33844;SDS011;20145;43.118;25.694;2023-02-01T11:38:38;9.50;;;6.07;;
33844;SDS011;20145;43.118;25.694;2023-02-01T11:41:14;8.13;;;5.65;;
33844;SDS011;20145;43.118;25.694;2023-02-01T11:43:57;4.00;;;3.17;;
33844;SDS011;20145;43.118;25.694;2023-02-01T11:46:28;5.63;;;4.32;;
33844;SDS011;20145;43.118;25.694;2023-02-01T11:51:35;5.72;;;3.72;;
33844;SDS011;20145;43.118;25.694;2023-02-01T11:56:55;6.75;;;3.75;;
33844;SDS011;20145;43.118;25.694;2023-02-01T12:01:59;10.70;;;5.28;;
33844;SDS011;20145;43.118;25.694;2023-02-01T12:10:26;5.55;;;3.60;;
33844;SDS011;20145;43.118;25.694;2023-02-01T12:25:21;6.68;;;3.88;;
33844;SDS011;20145;43.118;25.694;2023-02-01T12:31:01;12.48;;;6.40;;
33844;SDS011;20145;43.118;25.694;2023-02-01T12:39:22;9.30;;;5.50;;
33844;SDS011;20145;43.118;25.694;2023-02-01T12:41:53;13.25;;;6.43;;
33844;SDS011;20145;43.118;25.694;2023-02-01T12:47:12;11.07;;;6.90;;
33844;SDS011;20145;43.118;25.694;2023-02-01T12:52:56;9.55;;;4.85;;
33844;SDS011;20145;43.118;25.694;2023-02-01T12:57:44;14.30;;;7.70;;
33844;SDS011;20145;43.118;25.694;2023-02-01T13:08:11;14.93;;;9.75;;
33844;SDS011;20145;43.118;25.694;2023-02-01T13:10:47;10.00;;;4.68;;
33844;SDS011;20145;43.118;25.694;2023-02-01T13:13:24;11.35;;;7.55;;
33844;SDS011;20145;43.118;25.694;2023-02-01T13:16:45;11.77;;;7.18;;
33844;SDS011;20145;43.118;25.694;2023-02-01T13:19:14;10.77;;;5.32;;
33844;SDS011;20145;43.118;25.694;2023-02-01T13:21:48;5.82;;;3.58;;
33844;SDS011;20145;43.118;25.694;2023-02-01T13:26:59;5.50;;;4.00;;
33844;SDS011;20145;43.118;25.694;2023-02-01T13:29:25;21.52;;;9.05;;
33844;SDS011;20145;43.118;25.694;2023-02-01T13:43:22;18.50;;;8.00;;
33844;SDS011;20145;43.118;25.694;2023-02-01T13:45:52;6.15;;;4.05;;
33844;SDS011;20145;43.118;25.694;2023-02-01T13:48:29;7.40;;;4.05;;
33844;SDS011;20145;43.118;25.694;2023-02-01T13:51:04;8.30;;;4.90;;
33844;SDS011;20145;43.118;25.694;2023-02-01T13:53:31;13.55;;;6.40;;
33844;SDS011;20145;43.118;25.694;2023-02-01T13:56:02;15.75;;;8.18;;
33844;SDS011;20145;43.118;25.694;2023-02-01T13:58:40;10.30;;;6.95;;
33844;SDS011;20145;43.118;25.694;2023-02-01T14:03:51;6.97;;;3.53;;
33844;SDS011;20145;43.118;25.694;2023-02-01T14:16:38;5.45;;;3.00;;
33844;SDS011;20145;43.118;25.694;2023-02-01T14:19:07;6.60;;;3.08;;
33844;SDS011;20145;43.118;25.694;2023-02-01T14:21:48;3.65;;;3.35;;
33844;SDS011;20145;43.118;25.694;2023-02-01T14:24:26;9.30;;;5.47;;
33844;SDS011;20145;43.118;25.694;2023-02-01T14:27:13;17.85;;;10.80;;
33844;SDS011;20145;43.118;25.694;2023-02-01T14:29:44;22.48;;;10.82;;
33844;SDS011;20145;43.118;25.694;2023-02-01T14:32:24;13.00;;;7.35;;
33844;SDS011;20145;43.118;25.694;2023-02-01T14:34:52;30.92;;;14.35;;
33844;SDS011;20145;43.118;25.694;2023-02-01T14:45:45;12.40;;;7.47;;
33844;SDS011;20145;43.118;25.694;2023-02-01T14:47:51;27.50;;;14.23;;
33844;SDS011;20145;43.118;25.694;2023-02-01T14:50:27;18.45;;;12.05;;
33844;SDS011;20145;43.118;25.694;2023-02-01T14:55:44;7.22;;;4.88;;
33844;SDS011;20145;43.118;25.694;2023-02-01T15:04:05;5.05;;;3.17;;
33844;SDS011;20145;43.118;25.694;2023-02-01T15:09:10;6.20;;;4.13;;
33844;SDS011;20145;43.118;25.694;2023-02-01T15:14:42;4.20;;;3.47;;
33844;SDS011;20145;43.118;25.694;2023-02-01T15:19:59;5.15;;;3.85;;
33844;SDS011;20145;43.118;25.694;2023-02-01T15:22:27;4.80;;;3.75;;
33844;SDS011;20145;43.118;25.694;2023-02-01T15:24:58;7.93;;;5.63;;
33844;SDS011;20145;43.118;25.694;2023-02-01T15:27:25;4.43;;;3.30;;
33844;SDS011;20145;43.118;25.694;2023-02-01T15:29:52;6.03;;;3.88;;
33844;SDS011;20145;43.118;25.694;2023-02-01T15:32:28;7.57;;;4.45;;
33844;SDS011;20145;43.118;25.694;2023-02-01T15:34:59;14.60;;;6.60;;
33844;SDS011;20145;43.118;25.694;2023-02-01T15:37:26;6.85;;;4.05;;
33844;SDS011;20145;43.118;25.694;2023-02-01T15:40:02;5.80;;;4.28;;
33844;SDS011;20145;43.118;25.694;2023-02-01T15:42:28;4.80;;;3.28;;
33844;SDS011;20145;43.118;25.694;2023-02-01T15:44:54;7.18;;;5.03;;
33844;SDS011;20145;43.118;25.694;2023-02-01T15:47:23;7.72;;;4.85;;
33844;SDS011;20145;43.118;25.694;2023-02-01T15:49:55;19.45;;;11.73;;
33844;SDS011;20145;43.118;25.694;2023-02-01T15:52:35;44.88;;;18.67;;
33844;SDS011;20145;43.118;25.694;2023-02-01T15:55:06;21.55;;;10.55;;
33844;SDS011;20145;43.118;25.694;2023-02-01T15:57:42;36.20;;;18.83;;
33844;SDS011;20145;43.118;25.694;2023-02-01T16:02:57;15.82;;;4.38;;
33844;SDS011;20145;43.118;25.694;2023-02-01T16:05:34;14.50;;;7.18;;
33844;SDS011;20145;43.118;25.694;2023-02-01T16:10:38;8.23;;;5.25;;
33844;SDS011;20145;43.118;25.694;2023-02-01T16:13:12;5.45;;;4.38;;
33844;SDS011;20145;43.118;25.694;2023-02-01T16:15:38;8.07;;;6.22;;
33844;SDS011;20145;43.118;25.694;2023-02-01T16:18:05;14.57;;;11.13;;
33844;SDS011;20145;43.118;25.694;2023-02-01T16:20:33;9.88;;;7.65;;
33844;SDS011;20145;43.118;25.694;2023-02-01T16:23:00;25.42;;;16.88;;
33844;SDS011;20145;43.118;25.694;2023-02-01T16:25:27;29.05;;;19.00;;
33844;SDS011;20145;43.118;25.694;2023-02-01T16:27:52;26.38;;;16.73;;
33844;SDS011;20145;43.118;25.694;2023-02-01T16:30:18;35.97;;;22.02;;
33844;SDS011;20145;43.118;25.694;2023-02-01T16:32:48;39.85;;;23.33;;
33844;SDS011;20145;43.118;25.694;2023-02-01T16:35:17;53.17;;;30.38;;
33844;SDS011;20145;43.118;25.694;2023-02-01T16:37:52;34.58;;;20.20;;
33844;SDS011;20145;43.118;25.694;2023-02-01T16:40:19;32.47;;;17.63;;
33844;SDS011;20145;43.118;25.694;2023-02-01T16:42:47;73.68;;;38.70;;
33844;SDS011;20145;43.118;25.694;2023-02-01T16:45:15;41.13;;;21.48;;
33844;SDS011;20145;43.118;25.694;2023-02-01T16:47:42;39.58;;;25.00;;
33844;SDS011;20145;43.118;25.694;2023-02-01T16:50:17;29.70;;;17.05;;
33844;SDS011;20145;43.118;25.694;2023-02-01T16:52:45;50.70;;;19.15;;
33844;SDS011;20145;43.118;25.694;2023-02-01T16:55:14;19.02;;;12.30;;
33844;SDS011;20145;43.118;25.694;2023-02-01T16:57:41;18.07;;;10.77;;
33844;SDS011;20145;43.118;25.694;2023-02-01T17:00:08;14.38;;;8.50;;
33844;SDS011;20145;43.118;25.694;2023-02-01T17:02:42;20.50;;;12.43;;
33844;SDS011;20145;43.118;25.694;2023-02-01T17:05:10;12.85;;;8.70;;
33844;SDS011;20145;43.118;25.694;2023-02-01T17:07:36;8.68;;;6.60;;
33844;SDS011;20145;43.118;25.694;2023-02-01T17:10:04;10.05;;;6.20;;
33844;SDS011;20145;43.118;25.694;2023-02-01T17:12:31;11.85;;;8.82;;
33844;SDS011;20145;43.118;25.694;2023-02-01T17:14:58;7.72;;;6.43;;
33844;SDS011;20145;43.118;25.694;2023-02-01T17:17:30;8.07;;;6.25;;
33844;SDS011;20145;43.118;25.694;2023-02-01T17:19:59;14.85;;;9.23;;
33844;SDS011;20145;43.118;25.694;2023-02-01T17:22:25;9.20;;;7.75;;
33844;SDS011;20145;43.118;25.694;2023-02-01T17:24:50;9.23;;;7.38;;
33844;SDS011;20145;43.118;25.694;2023-02-01T17:27:16;19.20;;;13.55;;
33844;SDS011;20145;43.118;25.694;2023-02-01T17:29:42;22.60;;;15.88;;
33844;SDS011;20145;43.118;25.694;2023-02-01T17:32:20;16.27;;;10.55;;
33844;SDS011;20145;43.118;25.694;2023-02-01T17:34:48;25.92;;;12.80;;
33844;SDS011;20145;43.118;25.694;2023-02-01T17:37:24;23.23;;;11.55;;
33844;SDS011;20145;43.118;25.694;2023-02-01T17:39:55;22.02;;;12.50;;